sensor_id;sensor_type;location;lat;lon;timestamp;P1;durP1;ratioP1;P2;durP2;ratioP2
62572;SDS011;48626;51.678;5.806;2023-05-10T00:02:06;25.35;;;15.73;;
62572;SDS011;48626;51.678;5.806;2023-05-10T00:04:32;26.45;;;16.25;;
62572;SDS011;48626;51.678;5.806;2023-05-10T00:06:58;25.58;;;15.68;;
62572;SDS011;48626;51.678;5.806;2023-05-10T00:09:24;26.25;;;16.58;;
62572;SDS011;48626;51.678;5.806;2023-05-10T00:11:49;29.00;;;16.48;;
62572;SDS011;48626;51.678;5.806;2023-05-10T00:14:15;23.17;;;15.18;;
62572;SDS011;48626;51.678;5.806;2023-05-10T00:16:41;23.42;;;14.23;;
62572;SDS011;48626;51.678;5.806;2023-05-10T00:19:07;26.02;;;15.18;;
62572;SDS011;48626;51.678;5.806;2023-05-10T00:21:33;26.95;;;14.35;;
62572;SDS011;48626;51.678;5.806;2023-05-10T00:23:59;25.50;;;15.60;;
62572;SDS011;48626;51.678;5.806;2023-05-10T00:26:24;29.45;;;16.20;;
62572;SDS011;48626;51.678;5.806;2023-05-10T00:28:50;25.85;;;15.10;;
62572;SDS011;48626;51.678;5.806;2023-05-10T00:31:16;24.02;;;15.13;;
62572;SDS011;48626;51.678;5.806;2023-05-10T00:33:42;22.23;;;14.63;;
62572;SDS011;48626;51.678;5.806;2023-05-10T00:36:08;26.52;;;15.07;;
62572;SDS011;48626;51.678;5.806;2023-05-10T00:38:33;22.98;;;14.65;;
62572;SDS011;48626;51.678;5.806;2023-05-10T00:40:59;24.45;;;14.40;;
62572;SDS011;48626;51.678;5.806;2023-05-10T00:43:25;23.92;;;15.77;;
62572;SDS011;48626;51.678;5.806;2023-05-10T00:45:50;38.00;;;15.95;;
62572;SDS011;48626;51.678;5.806;2023-05-10T00:48:17;27.42;;;16.05;;
62572;SDS011;48626;51.678;5.806;2023-05-10T00:50:43;26.75;;;15.73;;
62572;SDS011;48626;51.678;5.806;2023-05-10T00:53:09;26.55;;;16.20;;
62572;SDS011;48626;51.678;5.806;2023-05-10T00:55:35;28.52;;;16.83;;
62572;SDS011;48626;51.678;5.806;2023-05-10T00:58:02;30.40;;;16.50;;
62572;SDS011;48626;51.678;5.806;2023-05-10T01:00:28;28.17;;;15.65;;
62572;SDS011;48626;51.678;5.806;2023-05-10T01:02:54;28.38;;;16.70;;
62572;SDS011;48626;51.678;5.806;2023-05-10T01:05:20;30.38;;;16.25;;
62572;SDS011;48626;51.678;5.806;2023-05-10T01:12:57;30.17;;;16.73;;
62572;SDS011;48626;51.678;5.806;2023-05-10T01:15:24;30.20;;;17.30;;
62572;SDS011;48626;51.678;5.806;2023-05-10T01:17:50;31.42;;;16.77;;
62572;SDS011;48626;51.678;5.806;2023-05-10T01:20:17;33.80;;;17.02;;
62572;SDS011;48626;51.678;5.806;2023-05-10T01:33:49;30.40;;;16.60;;
62572;SDS011;48626;51.678;5.806;2023-05-10T01:46:35;33.40;;;16.33;;
62572;SDS011;48626;51.678;5.806;2023-05-10T01:49:02;37.60;;;18.38;;
62572;SDS011;48626;51.678;5.806;2023-05-10T01:51:39;39.90;;;18.92;;
62572;SDS011;48626;51.678;5.806;2023-05-10T01:54:14;40.42;;;18.77;;
62572;SDS011;48626;51.678;5.806;2023-05-10T01:56:44;38.60;;;18.33;;
62572;SDS011;48626;51.678;5.806;2023-05-10T01:59:13;46.42;;;19.75;;
62572;SDS011;48626;51.678;5.806;2023-05-10T02:04:10;40.22;;;19.00;;
62572;SDS011;48626;51.678;5.806;2023-05-10T02:06:38;44.33;;;19.48;;
62572;SDS011;48626;51.678;5.806;2023-05-10T02:09:05;43.58;;;20.15;;
62572;SDS011;48626;51.678;5.806;2023-05-10T02:11:33;45.85;;;21.48;;
62572;SDS011;48626;51.678;5.806;2023-05-10T02:13:59;48.55;;;21.85;;
62572;SDS011;48626;51.678;5.806;2023-05-10T02:16:26;48.17;;;20.73;;
62572;SDS011;48626;51.678;5.806;2023-05-10T02:18:55;45.50;;;22.25;;
62572;SDS011;48626;51.678;5.806;2023-05-10T02:21:24;53.20;;;23.27;;
62572;SDS011;48626;51.678;5.806;2023-05-10T02:23:50;50.42;;;23.83;;
62572;SDS011;48626;51.678;5.806;2023-05-10T02:26:17;47.78;;;22.42;;
62572;SDS011;48626;51.678;5.806;2023-05-10T02:28:46;48.17;;;22.13;;
62572;SDS011;48626;51.678;5.806;2023-05-10T02:31:12;44.05;;;22.30;;
62572;SDS011;48626;51.678;5.806;2023-05-10T02:33:39;43.05;;;22.10;;
62572;SDS011;48626;51.678;5.806;2023-05-10T02:36:07;60.60;;;24.73;;
62572;SDS011;48626;51.678;5.806;2023-05-10T02:38:35;56.92;;;25.55;;
62572;SDS011;48626;51.678;5.806;2023-05-10T02:41:01;68.90;;;28.30;;
62572;SDS011;48626;51.678;5.806;2023-05-10T02:43:30;68.97;;;28.30;;
62572;SDS011;48626;51.678;5.806;2023-05-10T02:45:58;76.28;;;28.30;;
62572;SDS011;48626;51.678;5.806;2023-05-10T02:48:24;71.18;;;28.58;;
62572;SDS011;48626;51.678;5.806;2023-05-10T02:50:50;70.53;;;28.80;;
62572;SDS011;48626;51.678;5.806;2023-05-10T02:53:22;79.53;;;31.20;;
62572;SDS011;48626;51.678;5.806;2023-05-10T02:55:55;77.43;;;30.55;;
62572;SDS011;48626;51.678;5.806;2023-05-10T02:58:24;68.37;;;29.83;;
62572;SDS011;48626;51.678;5.806;2023-05-10T03:00:50;83.03;;;31.55;;
62572;SDS011;48626;51.678;5.806;2023-05-10T03:03:16;81.85;;;30.75;;
62572;SDS011;48626;51.678;5.806;2023-05-10T03:05:41;77.45;;;30.27;;
62572;SDS011;48626;51.678;5.806;2023-05-10T03:08:07;93.72;;;33.88;;
62572;SDS011;48626;51.678;5.806;2023-05-10T03:10:33;76.50;;;30.33;;
62572;SDS011;48626;51.678;5.806;2023-05-10T03:20:47;84.95;;;30.88;;
62572;SDS011;48626;51.678;5.806;2023-05-10T03:25:43;85.82;;;32.15;;
62572;SDS011;48626;51.678;5.806;2023-05-10T03:28:11;74.13;;;30.17;;
62572;SDS011;48626;51.678;5.806;2023-05-10T03:30:39;91.55;;;34.55;;
62572;SDS011;48626;51.678;5.806;2023-05-10T03:33:06;77.07;;;32.22;;
62572;SDS011;48626;51.678;5.806;2023-05-10T03:35:33;86.25;;;32.70;;
62572;SDS011;48626;51.678;5.806;2023-05-10T03:37:58;84.40;;;31.15;;
62572;SDS011;48626;51.678;5.806;2023-05-10T03:40:25;86.53;;;34.38;;
62572;SDS011;48626;51.678;5.806;2023-05-10T03:42:53;76.57;;;30.45;;
62572;SDS011;48626;51.678;5.806;2023-05-10T03:45:20;84.05;;;34.42;;
62572;SDS011;48626;51.678;5.806;2023-05-10T03:47:45;82.88;;;33.70;;
62572;SDS011;48626;51.678;5.806;2023-05-10T03:50:11;83.10;;;33.78;;
62572;SDS011;48626;51.678;5.806;2023-05-10T03:52:37;69.82;;;30.13;;
62572;SDS011;48626;51.678;5.806;2023-05-10T03:55:04;71.18;;;31.20;;
62572;SDS011;48626;51.678;5.806;2023-05-10T03:57:30;74.82;;;30.48;;
62572;SDS011;48626;51.678;5.806;2023-05-10T03:59:56;74.45;;;32.10;;
62572;SDS011;48626;51.678;5.806;2023-05-10T04:02:21;86.47;;;33.08;;
62572;SDS011;48626;51.678;5.806;2023-05-10T04:04:47;78.88;;;33.35;;
62572;SDS011;48626;51.678;5.806;2023-05-10T04:07:13;79.18;;;33.45;;
62572;SDS011;48626;51.678;5.806;2023-05-10T04:09:39;75.20;;;32.58;;
62572;SDS011;48626;51.678;5.806;2023-05-10T04:12:05;68.53;;;31.65;;
62572;SDS011;48626;51.678;5.806;2023-05-10T04:14:31;77.05;;;31.90;;
62572;SDS011;48626;51.678;5.806;2023-05-10T04:16:56;82.93;;;34.03;;
62572;SDS011;48626;51.678;5.806;2023-05-10T04:19:22;80.80;;;34.08;;
62572;SDS011;48626;51.678;5.806;2023-05-10T04:21:48;84.20;;;34.35;;
62572;SDS011;48626;51.678;5.806;2023-05-10T04:24:14;83.13;;;35.63;;
62572;SDS011;48626;51.678;5.806;2023-05-10T04:26:39;82.85;;;35.25;;
62572;SDS011;48626;51.678;5.806;2023-05-10T04:29:05;76.65;;;34.03;;
62572;SDS011;48626;51.678;5.806;2023-05-10T04:31:31;83.90;;;35.60;;
62572;SDS011;48626;51.678;5.806;2023-05-10T04:33:56;84.22;;;35.83;;
62572;SDS011;48626;51.678;5.806;2023-05-10T04:36:22;85.28;;;34.95;;
62572;SDS011;48626;51.678;5.806;2023-05-10T04:38:48;78.03;;;33.88;;
62572;SDS011;48626;51.678;5.806;2023-05-10T04:41:13;81.63;;;34.85;;
62572;SDS011;48626;51.678;5.806;2023-05-10T04:43:39;82.72;;;35.25;;
62572;SDS011;48626;51.678;5.806;2023-05-10T04:46:05;74.18;;;31.48;;
62572;SDS011;48626;51.678;5.806;2023-05-10T04:48:32;76.45;;;31.85;;
62572;SDS011;48626;51.678;5.806;2023-05-10T04:50:58;79.80;;;32.83;;
62572;SDS011;48626;51.678;5.806;2023-05-10T04:53:24;69.82;;;31.33;;
62572;SDS011;48626;51.678;5.806;2023-05-10T04:55:49;75.20;;;32.13;;
62572;SDS011;48626;51.678;5.806;2023-05-10T04:58:15;66.40;;;30.05;;
62572;SDS011;48626;51.678;5.806;2023-05-10T05:00:41;68.45;;;29.33;;
62572;SDS011;48626;51.678;5.806;2023-05-10T05:03:07;72.18;;;30.65;;
62572;SDS011;48626;51.678;5.806;2023-05-10T05:05:33;81.15;;;31.10;;
62572;SDS011;48626;51.678;5.806;2023-05-10T05:07:58;69.43;;;28.88;;
62572;SDS011;48626;51.678;5.806;2023-05-10T05:10:24;60.03;;;26.95;;
62572;SDS011;48626;51.678;5.806;2023-05-10T05:12:50;68.75;;;28.27;;
62572;SDS011;48626;51.678;5.806;2023-05-10T05:15:15;64.63;;;27.80;;
62572;SDS011;48626;51.678;5.806;2023-05-10T05:17:42;68.35;;;27.95;;
62572;SDS011;48626;51.678;5.806;2023-05-10T05:20:08;66.32;;;27.40;;
62572;SDS011;48626;51.678;5.806;2023-05-10T05:22:35;68.32;;;28.33;;
62572;SDS011;48626;51.678;5.806;2023-05-10T05:25:02;71.43;;;29.70;;
62572;SDS011;48626;51.678;5.806;2023-05-10T05:27:28;68.65;;;29.48;;
62572;SDS011;48626;51.678;5.806;2023-05-10T05:29:54;72.18;;;28.92;;
62572;SDS011;48626;51.678;5.806;2023-05-10T05:32:20;72.60;;;28.42;;
62572;SDS011;48626;51.678;5.806;2023-05-10T05:34:46;72.10;;;28.75;;
62572;SDS011;48626;51.678;5.806;2023-05-10T05:37:15;74.90;;;28.30;;
62572;SDS011;48626;51.678;5.806;2023-05-10T05:39:42;63.78;;;27.02;;
62572;SDS011;48626;51.678;5.806;2023-05-10T05:42:11;67.65;;;27.02;;
62572;SDS011;48626;51.678;5.806;2023-05-10T05:44:38;65.68;;;26.58;;
62572;SDS011;48626;51.678;5.806;2023-05-10T05:47:04;71.60;;;26.95;;
62572;SDS011;48626;51.678;5.806;2023-05-10T05:49:30;66.55;;;26.05;;
62572;SDS011;48626;51.678;5.806;2023-05-10T05:52:00;72.32;;;27.42;;
62572;SDS011;48626;51.678;5.806;2023-05-10T05:54:26;70.03;;;26.70;;
62572;SDS011;48626;51.678;5.806;2023-05-10T05:56:58;59.13;;;24.30;;
62572;SDS011;48626;51.678;5.806;2023-05-10T05:59:25;54.13;;;25.42;;
62572;SDS011;48626;51.678;5.806;2023-05-10T06:01:51;68.13;;;26.73;;
62572;SDS011;48626;51.678;5.806;2023-05-10T06:04:17;66.57;;;27.83;;
62572;SDS011;48626;51.678;5.806;2023-05-10T06:06:43;69.93;;;27.52;;
62572;SDS011;48626;51.678;5.806;2023-05-10T06:09:09;66.25;;;27.75;;
62572;SDS011;48626;51.678;5.806;2023-05-10T06:11:35;57.58;;;25.08;;
62572;SDS011;48626;51.678;5.806;2023-05-10T06:14:02;63.33;;;27.70;;
62572;SDS011;48626;51.678;5.806;2023-05-10T06:16:29;59.72;;;25.50;;
62572;SDS011;48626;51.678;5.806;2023-05-10T06:18:55;69.95;;;27.88;;
62572;SDS011;48626;51.678;5.806;2023-05-10T06:21:21;70.13;;;28.83;;
62572;SDS011;48626;51.678;5.806;2023-05-10T06:23:47;69.47;;;28.33;;
62572;SDS011;48626;51.678;5.806;2023-05-10T06:26:13;68.70;;;27.20;;
62572;SDS011;48626;51.678;5.806;2023-05-10T06:28:39;63.78;;;27.55;;
62572;SDS011;48626;51.678;5.806;2023-05-10T06:31:05;66.20;;;27.88;;
62572;SDS011;48626;51.678;5.806;2023-05-10T06:33:31;65.22;;;27.70;;
62572;SDS011;48626;51.678;5.806;2023-05-10T06:35:57;69.28;;;27.80;;
62572;SDS011;48626;51.678;5.806;2023-05-10T06:38:23;68.03;;;28.80;;
62572;SDS011;48626;51.678;5.806;2023-05-10T06:40:49;68.63;;;27.77;;
62572;SDS011;48626;51.678;5.806;2023-05-10T06:43:15;60.58;;;28.27;;
62572;SDS011;48626;51.678;5.806;2023-05-10T06:45:41;58.92;;;26.92;;
62572;SDS011;48626;51.678;5.806;2023-05-10T06:48:07;56.45;;;25.50;;
62572;SDS011;48626;51.678;5.806;2023-05-10T06:50:32;58.80;;;25.48;;
62572;SDS011;48626;51.678;5.806;2023-05-10T06:52:59;52.90;;;25.38;;
62572;SDS011;48626;51.678;5.806;2023-05-10T06:55:25;60.53;;;25.20;;
62572;SDS011;48626;51.678;5.806;2023-05-10T06:57:51;66.40;;;26.42;;
62572;SDS011;48626;51.678;5.806;2023-05-10T07:00:18;56.80;;;26.00;;
62572;SDS011;48626;51.678;5.806;2023-05-10T07:02:44;60.75;;;26.15;;
62572;SDS011;48626;51.678;5.806;2023-05-10T07:05:10;55.75;;;23.67;;
62572;SDS011;48626;51.678;5.806;2023-05-10T07:07:36;55.05;;;25.45;;
62572;SDS011;48626;51.678;5.806;2023-05-10T07:10:02;57.60;;;24.60;;
62572;SDS011;48626;51.678;5.806;2023-05-10T07:12:28;54.75;;;24.25;;
62572;SDS011;48626;51.678;5.806;2023-05-10T07:14:53;61.22;;;25.27;;
62572;SDS011;48626;51.678;5.806;2023-05-10T07:17:19;51.70;;;24.15;;
62572;SDS011;48626;51.678;5.806;2023-05-10T07:19:45;54.63;;;24.10;;
62572;SDS011;48626;51.678;5.806;2023-05-10T07:22:10;51.92;;;23.38;;
62572;SDS011;48626;51.678;5.806;2023-05-10T07:24:36;59.75;;;24.70;;
62572;SDS011;48626;51.678;5.806;2023-05-10T07:27:03;52.05;;;24.13;;
62572;SDS011;48626;51.678;5.806;2023-05-10T07:29:29;49.67;;;23.77;;
62572;SDS011;48626;51.678;5.806;2023-05-10T07:31:55;52.47;;;23.40;;
62572;SDS011;48626;51.678;5.806;2023-05-10T07:34:20;49.55;;;24.05;;
62572;SDS011;48626;51.678;5.806;2023-05-10T07:36:46;52.85;;;25.10;;
62572;SDS011;48626;51.678;5.806;2023-05-10T07:39:12;52.63;;;24.55;;
62572;SDS011;48626;51.678;5.806;2023-05-10T07:41:37;52.72;;;25.08;;
62572;SDS011;48626;51.678;5.806;2023-05-10T07:44:03;53.83;;;25.10;;
62572;SDS011;48626;51.678;5.806;2023-05-10T07:46:31;57.00;;;24.85;;
62572;SDS011;48626;51.678;5.806;2023-05-10T07:48:57;56.35;;;24.98;;
62572;SDS011;48626;51.678;5.806;2023-05-10T07:51:23;53.55;;;23.63;;
62572;SDS011;48626;51.678;5.806;2023-05-10T07:53:48;55.67;;;24.98;;
62572;SDS011;48626;51.678;5.806;2023-05-10T07:58:46;61.42;;;24.27;;
62572;SDS011;48626;51.678;5.806;2023-05-10T08:01:11;58.75;;;26.25;;
62572;SDS011;48626;51.678;5.806;2023-05-10T08:03:37;54.40;;;25.95;;
62572;SDS011;48626;51.678;5.806;2023-05-10T08:06:03;64.97;;;28.10;;
62572;SDS011;48626;51.678;5.806;2023-05-10T08:08:29;69.15;;;28.80;;
62572;SDS011;48626;51.678;5.806;2023-05-10T08:10:54;61.47;;;28.02;;
62572;SDS011;48626;51.678;5.806;2023-05-10T08:13:20;62.10;;;28.60;;
62572;SDS011;48626;51.678;5.806;2023-05-10T08:15:46;55.60;;;27.05;;
62572;SDS011;48626;51.678;5.806;2023-05-10T08:18:12;56.72;;;26.77;;
62572;SDS011;48626;51.678;5.806;2023-05-10T08:20:38;57.38;;;27.02;;
62572;SDS011;48626;51.678;5.806;2023-05-10T08:23:03;54.80;;;27.10;;
62572;SDS011;48626;51.678;5.806;2023-05-10T08:25:29;63.63;;;28.05;;
62572;SDS011;48626;51.678;5.806;2023-05-10T08:27:55;60.70;;;28.00;;
62572;SDS011;48626;51.678;5.806;2023-05-10T08:30:20;61.17;;;28.17;;
62572;SDS011;48626;51.678;5.806;2023-05-10T08:32:46;60.85;;;27.58;;
62572;SDS011;48626;51.678;5.806;2023-05-10T08:35:12;55.08;;;26.60;;
62572;SDS011;48626;51.678;5.806;2023-05-10T08:37:37;55.72;;;26.70;;
62572;SDS011;48626;51.678;5.806;2023-05-10T08:40:03;51.53;;;25.10;;
62572;SDS011;48626;51.678;5.806;2023-05-10T08:42:30;51.20;;;25.98;;
62572;SDS011;48626;51.678;5.806;2023-05-10T08:47:25;44.53;;;21.88;;
62572;SDS011;48626;51.678;5.806;2023-05-10T08:49:51;46.95;;;23.55;;
62572;SDS011;48626;51.678;5.806;2023-05-10T08:52:17;49.38;;;24.75;;
62572;SDS011;48626;51.678;5.806;2023-05-10T08:54:43;43.90;;;22.90;;
62572;SDS011;48626;51.678;5.806;2023-05-10T08:57:09;48.17;;;23.45;;
62572;SDS011;48626;51.678;5.806;2023-05-10T08:59:35;46.50;;;23.67;;
62572;SDS011;48626;51.678;5.806;2023-05-10T09:02:04;46.25;;;23.35;;
62572;SDS011;48626;51.678;5.806;2023-05-10T09:04:31;44.05;;;23.73;;
62572;SDS011;48626;51.678;5.806;2023-05-10T09:06:56;50.75;;;24.38;;
62572;SDS011;48626;51.678;5.806;2023-05-10T09:09:23;52.15;;;25.25;;
62572;SDS011;48626;51.678;5.806;2023-05-10T09:11:50;51.17;;;26.20;;
62572;SDS011;48626;51.678;5.806;2023-05-10T09:14:17;46.75;;;26.35;;
62572;SDS011;48626;51.678;5.806;2023-05-10T09:16:44;44.83;;;25.50;;
62572;SDS011;48626;51.678;5.806;2023-05-10T09:19:10;46.47;;;25.23;;
62572;SDS011;48626;51.678;5.806;2023-05-10T09:21:36;46.60;;;25.02;;
62572;SDS011;48626;51.678;5.806;2023-05-10T09:24:05;43.90;;;24.05;;
62572;SDS011;48626;51.678;5.806;2023-05-10T09:26:32;44.63;;;25.33;;
62572;SDS011;48626;51.678;5.806;2023-05-10T09:28:58;46.75;;;24.80;;
62572;SDS011;48626;51.678;5.806;2023-05-10T09:31:42;42.25;;;26.58;;
62572;SDS011;48626;51.678;5.806;2023-05-10T09:34:19;43.20;;;24.33;;
62572;SDS011;48626;51.678;5.806;2023-05-10T09:36:55;44.33;;;24.38;;
62572;SDS011;48626;51.678;5.806;2023-05-10T09:41:59;39.20;;;23.33;;
62572;SDS011;48626;51.678;5.806;2023-05-10T09:44:28;40.33;;;23.25;;
62572;SDS011;48626;51.678;5.806;2023-05-10T09:46:54;36.17;;;22.30;;
62572;SDS011;48626;51.678;5.806;2023-05-10T09:49:21;41.40;;;22.95;;
62572;SDS011;48626;51.678;5.806;2023-05-10T09:51:47;42.33;;;24.88;;
62572;SDS011;48626;51.678;5.806;2023-05-10T09:54:24;42.78;;;23.23;;
62572;SDS011;48626;51.678;5.806;2023-05-10T09:56:50;43.45;;;23.10;;
62572;SDS011;48626;51.678;5.806;2023-05-10T09:59:15;46.50;;;22.65;;
62572;SDS011;48626;51.678;5.806;2023-05-10T10:01:42;43.30;;;22.73;;
62572;SDS011;48626;51.678;5.806;2023-05-10T10:04:14;40.85;;;21.58;;
62572;SDS011;48626;51.678;5.806;2023-05-10T10:06:40;41.55;;;22.52;;
62572;SDS011;48626;51.678;5.806;2023-05-10T10:09:06;43.10;;;22.30;;
62572;SDS011;48626;51.678;5.806;2023-05-10T10:11:33;40.42;;;21.42;;
62572;SDS011;48626;51.678;5.806;2023-05-10T10:14:03;36.88;;;21.95;;
62572;SDS011;48626;51.678;5.806;2023-05-10T10:16:30;44.58;;;22.00;;
62572;SDS011;48626;51.678;5.806;2023-05-10T10:18:57;37.53;;;21.25;;
62572;SDS011;48626;51.678;5.806;2023-05-10T10:21:23;34.80;;;21.33;;
62572;SDS011;48626;51.678;5.806;2023-05-10T10:23:49;39.50;;;22.70;;
62572;SDS011;48626;51.678;5.806;2023-05-10T10:26:16;32.38;;;20.67;;
62572;SDS011;48626;51.678;5.806;2023-05-10T10:31:26;36.28;;;21.02;;
62572;SDS011;48626;51.678;5.806;2023-05-10T10:34:33;31.58;;;18.42;;
62572;SDS011;48626;51.678;5.806;2023-05-10T10:37:03;29.27;;;18.55;;
62572;SDS011;48626;51.678;5.806;2023-05-10T10:39:30;29.85;;;18.05;;
62572;SDS011;48626;51.678;5.806;2023-05-10T10:41:56;29.83;;;18.25;;
62572;SDS011;48626;51.678;5.806;2023-05-10T10:49:38;27.25;;;17.48;;
62572;SDS011;48626;51.678;5.806;2023-05-10T10:52:16;24.33;;;17.35;;
62572;SDS011;48626;51.678;5.806;2023-05-10T10:55:05;26.20;;;16.52;;
62572;SDS011;48626;51.678;5.806;2023-05-10T10:57:53;24.50;;;16.13;;
62572;SDS011;48626;51.678;5.806;2023-05-10T11:08:31;33.60;;;19.02;;
62572;SDS011;48626;51.678;5.806;2023-05-10T11:13:37;31.20;;;16.77;;
62572;SDS011;48626;51.678;5.806;2023-05-10T11:19:24;29.88;;;16.42;;
62572;SDS011;48626;51.678;5.806;2023-05-10T11:21:44;27.38;;;16.40;;
62572;SDS011;48626;51.678;5.806;2023-05-10T11:24:15;32.45;;;18.50;;
62572;SDS011;48626;51.678;5.806;2023-05-10T11:26:42;30.60;;;18.00;;
62572;SDS011;48626;51.678;5.806;2023-05-10T11:29:08;25.48;;;15.13;;
62572;SDS011;48626;51.678;5.806;2023-05-10T11:31:34;24.88;;;14.93;;
62572;SDS011;48626;51.678;5.806;2023-05-10T11:34:00;26.00;;;15.45;;
62572;SDS011;48626;51.678;5.806;2023-05-10T11:36:27;19.13;;;13.50;;
62572;SDS011;48626;51.678;5.806;2023-05-10T11:38:54;23.08;;;14.55;;
62572;SDS011;48626;51.678;5.806;2023-05-10T11:41:21;21.70;;;14.13;;
62572;SDS011;48626;51.678;5.806;2023-05-10T11:43:49;21.42;;;13.95;;
62572;SDS011;48626;51.678;5.806;2023-05-10T11:46:17;22.40;;;13.52;;
62572;SDS011;48626;51.678;5.806;2023-05-10T11:48:45;23.77;;;13.02;;
62572;SDS011;48626;51.678;5.806;2023-05-10T11:51:14;18.48;;;12.18;;
62572;SDS011;48626;51.678;5.806;2023-05-10T11:53:40;17.70;;;12.18;;
62572;SDS011;48626;51.678;5.806;2023-05-10T11:56:06;19.35;;;12.65;;
62572;SDS011;48626;51.678;5.806;2023-05-10T11:58:33;15.90;;;12.27;;
62572;SDS011;48626;51.678;5.806;2023-05-10T12:01:00;19.65;;;12.38;;
62572;SDS011;48626;51.678;5.806;2023-05-10T12:03:27;16.60;;;11.90;;
62572;SDS011;48626;51.678;5.806;2023-05-10T12:05:53;21.05;;;13.02;;
62572;SDS011;48626;51.678;5.806;2023-05-10T12:08:21;19.60;;;13.15;;
62572;SDS011;48626;51.678;5.806;2023-05-10T12:10:48;25.10;;;13.88;;
62572;SDS011;48626;51.678;5.806;2023-05-10T12:13:14;19.25;;;13.13;;
62572;SDS011;48626;51.678;5.806;2023-05-10T12:15:40;20.40;;;13.52;;
62572;SDS011;48626;51.678;5.806;2023-05-10T12:18:10;22.10;;;13.80;;
62572;SDS011;48626;51.678;5.806;2023-05-10T12:23:02;20.27;;;12.80;;
62572;SDS011;48626;51.678;5.806;2023-05-10T12:25:36;19.08;;;12.60;;
62572;SDS011;48626;51.678;5.806;2023-05-10T12:28:03;17.58;;;12.43;;
62572;SDS011;48626;51.678;5.806;2023-05-10T12:30:31;18.83;;;10.80;;
62572;SDS011;48626;51.678;5.806;2023-05-10T12:35:46;18.75;;;10.85;;
62572;SDS011;48626;51.678;5.806;2023-05-10T12:38:49;18.70;;;12.20;;
62572;SDS011;48626;51.678;5.806;2023-05-10T12:41:14;16.95;;;11.50;;
62572;SDS011;48626;51.678;5.806;2023-05-10T12:43:41;19.45;;;12.40;;
62572;SDS011;48626;51.678;5.806;2023-05-10T12:46:07;21.65;;;13.18;;
62572;SDS011;48626;51.678;5.806;2023-05-10T12:48:34;17.65;;;12.70;;
62572;SDS011;48626;51.678;5.806;2023-05-10T12:51:01;17.33;;;11.45;;
62572;SDS011;48626;51.678;5.806;2023-05-10T12:53:27;15.50;;;10.57;;
62572;SDS011;48626;51.678;5.806;2023-05-10T12:55:53;21.00;;;11.38;;
62572;SDS011;48626;51.678;5.806;2023-05-10T12:58:19;17.77;;;11.68;;
62572;SDS011;48626;51.678;5.806;2023-05-10T13:00:45;18.02;;;12.57;;
62572;SDS011;48626;51.678;5.806;2023-05-10T13:03:11;22.77;;;12.95;;
62572;SDS011;48626;51.678;5.806;2023-05-10T13:05:36;16.95;;;12.05;;
62572;SDS011;48626;51.678;5.806;2023-05-10T13:08:02;16.77;;;10.80;;
62572;SDS011;48626;51.678;5.806;2023-05-10T13:10:29;17.13;;;11.50;;
62572;SDS011;48626;51.678;5.806;2023-05-10T13:12:55;20.17;;;13.07;;
62572;SDS011;48626;51.678;5.806;2023-05-10T13:15:22;15.90;;;12.18;;
62572;SDS011;48626;51.678;5.806;2023-05-10T13:17:48;21.30;;;12.35;;
62572;SDS011;48626;51.678;5.806;2023-05-10T13:20:13;18.67;;;12.85;;
62572;SDS011;48626;51.678;5.806;2023-05-10T13:22:40;18.45;;;12.23;;
62572;SDS011;48626;51.678;5.806;2023-05-10T13:25:07;17.27;;;12.50;;
62572;SDS011;48626;51.678;5.806;2023-05-10T13:27:33;23.45;;;13.20;;
62572;SDS011;48626;51.678;5.806;2023-05-10T13:29:58;21.13;;;12.82;;
62572;SDS011;48626;51.678;5.806;2023-05-10T13:32:24;18.40;;;13.68;;
62572;SDS011;48626;51.678;5.806;2023-05-10T13:34:50;17.25;;;13.32;;
62572;SDS011;48626;51.678;5.806;2023-05-10T13:37:16;19.85;;;13.07;;
62572;SDS011;48626;51.678;5.806;2023-05-10T13:39:42;21.15;;;14.10;;
62572;SDS011;48626;51.678;5.806;2023-05-10T13:42:08;20.02;;;13.02;;
62572;SDS011;48626;51.678;5.806;2023-05-10T13:44:33;21.20;;;13.63;;
62572;SDS011;48626;51.678;5.806;2023-05-10T13:46:59;18.30;;;12.10;;
62572;SDS011;48626;51.678;5.806;2023-05-10T13:49:25;15.65;;;11.70;;
62572;SDS011;48626;51.678;5.806;2023-05-10T13:51:50;19.00;;;12.15;;
62572;SDS011;48626;51.678;5.806;2023-05-10T13:54:17;20.02;;;11.50;;
62572;SDS011;48626;51.678;5.806;2023-05-10T13:56:44;20.55;;;11.50;;
62572;SDS011;48626;51.678;5.806;2023-05-10T13:59:12;15.68;;;11.52;;
62572;SDS011;48626;51.678;5.806;2023-05-10T14:01:39;15.30;;;11.32;;
62572;SDS011;48626;51.678;5.806;2023-05-10T14:04:05;17.23;;;11.13;;
62572;SDS011;48626;51.678;5.806;2023-05-10T14:06:32;10.73;;;6.78;;
62572;SDS011;48626;51.678;5.806;2023-05-10T14:08:58;8.73;;;7.10;;
62572;SDS011;48626;51.678;5.806;2023-05-10T14:11:24;8.60;;;6.88;;
62572;SDS011;48626;51.678;5.806;2023-05-10T14:13:50;7.30;;;5.57;;
62572;SDS011;48626;51.678;5.806;2023-05-10T14:16:15;5.78;;;4.85;;
62572;SDS011;48626;51.678;5.806;2023-05-10T14:18:41;6.22;;;5.18;;
62572;SDS011;48626;51.678;5.806;2023-05-10T14:21:07;6.35;;;4.45;;
62572;SDS011;48626;51.678;5.806;2023-05-10T14:23:32;6.70;;;4.75;;
62572;SDS011;48626;51.678;5.806;2023-05-10T14:25:58;7.70;;;5.22;;
62572;SDS011;48626;51.678;5.806;2023-05-10T14:28:24;7.93;;;5.35;;
62572;SDS011;48626;51.678;5.806;2023-05-10T14:30:50;8.90;;;4.30;;
62572;SDS011;48626;51.678;5.806;2023-05-10T14:33:16;4.32;;;3.75;;
62572;SDS011;48626;51.678;5.806;2023-05-10T14:35:42;4.88;;;3.72;;
62572;SDS011;48626;51.678;5.806;2023-05-10T14:38:08;3.70;;;3.10;;
62572;SDS011;48626;51.678;5.806;2023-05-10T14:40:33;4.55;;;3.40;;
62572;SDS011;48626;51.678;5.806;2023-05-10T14:42:59;4.57;;;3.42;;
62572;SDS011;48626;51.678;5.806;2023-05-10T14:45:25;7.95;;;3.40;;
62572;SDS011;48626;51.678;5.806;2023-05-10T14:47:51;3.92;;;3.20;;
62572;SDS011;48626;51.678;5.806;2023-05-10T14:50:17;5.57;;;3.60;;
62572;SDS011;48626;51.678;5.806;2023-05-10T14:52:43;5.10;;;3.35;;
62572;SDS011;48626;51.678;5.806;2023-05-10T14:55:09;5.18;;;3.55;;
62572;SDS011;48626;51.678;5.806;2023-05-10T14:57:35;6.82;;;4.55;;
62572;SDS011;48626;51.678;5.806;2023-05-10T15:00:00;6.22;;;4.78;;
62572;SDS011;48626;51.678;5.806;2023-05-10T15:02:27;6.70;;;4.93;;
62572;SDS011;48626;51.678;5.806;2023-05-10T15:04:52;6.97;;;5.72;;
62572;SDS011;48626;51.678;5.806;2023-05-10T15:07:18;7.25;;;6.05;;
62572;SDS011;48626;51.678;5.806;2023-05-10T15:09:44;7.78;;;6.30;;
62572;SDS011;48626;51.678;5.806;2023-05-10T15:12:10;7.65;;;6.45;;
62572;SDS011;48626;51.678;5.806;2023-05-10T15:14:36;9.48;;;6.28;;
62572;SDS011;48626;51.678;5.806;2023-05-10T15:17:02;9.40;;;6.90;;
62572;SDS011;48626;51.678;5.806;2023-05-10T15:19:28;6.38;;;5.70;;
62572;SDS011;48626;51.678;5.806;2023-05-10T15:21:54;8.30;;;6.20;;
62572;SDS011;48626;51.678;5.806;2023-05-10T15:24:23;12.15;;;6.55;;
62572;SDS011;48626;51.678;5.806;2023-05-10T15:26:52;9.88;;;6.45;;
62572;SDS011;48626;51.678;5.806;2023-05-10T15:29:18;9.93;;;7.72;;
62572;SDS011;48626;51.678;5.806;2023-05-10T15:31:45;8.73;;;7.82;;
62572;SDS011;48626;51.678;5.806;2023-05-10T15:34:15;9.90;;;7.88;;
62572;SDS011;48626;51.678;5.806;2023-05-10T15:36:42;11.10;;;8.30;;